• Join FlightAware (Why Join?)
  • Login
  • US Flag 
08:14AM EDT


 

Airport Tracker/Info


-or-


 

Live Flight TrackerFlight Track Log ✈ ASQ6130 ✈ 19-Jun-2013 ✈ KDIK - KDEN

Flight Track Log - Related Links

Times and Time Zones

All times are in EDT time to prevent confusion due to time zone crossing. See the ASQ6130 flight status page for this flight to view local times or setup timezone preferences in your user account.

Time Position Orientation Groundspeed Altitude Reporting Facility
EDT Latitude Longitude Course Direction KTS MPH feet Rate Location/Type
02:06PM 46.6631 -102.7897 183° South 236 272 7,800  Level Minneapolis Center
02:07PM 46.2721 -102.9599 192° South  Level Estimated
02:07PM 46.5919 -102.7953 183° South 244 281 10,200  Level Minneapolis Center
02:08PM 46.1670 -102.9912 192° South  Level Estimated
02:08PM 46.4922 -102.8022 183° South 274 315 11,300  Level Minneapolis Center
02:09PM 46.0689 -103.0203 192° South  Level Estimated
02:09PM 46.3947 -102.8136 185° South 318 366 12,800  Level Minneapolis Center
02:10PM 45.9706 -103.0493 192° South  Level Estimated
02:10PM 46.2961 -102.8194 182° South 341 392 14,400  Level Minneapolis Center
02:11PM 46.1928 -102.8294 184° South 357 411 16,000 1,500 Climbing Minneapolis Center
02:12PM 46.0903 -102.8397 184° South 365 420 17,500 1,500 Climbing Minneapolis Center
02:13PM 45.9847 -102.8503 184° South 374 430 19,100 1,680 Climbing Minneapolis Center
02:14PM 45.8581 -102.8611 183° South 380 437 21,000 1,680 Climbing Minneapolis Center
02:15PM 45.7511 -102.8694 183° South 383 441 22,600 1,500 Climbing Minneapolis Center
02:16PM 45.6431 -102.8792 184° South 386 444 24,100 1,500 Climbing Minneapolis Center
02:17PM 45.5369 -102.8883 183° South 387 445 25,700 1,620 Climbing Minneapolis Center
02:19PM 45.4086 -102.8981 183° South 387 445 27,500 1,560 Climbing Minneapolis Center
02:20PM 45.3028 -102.9078 184° South 384 442 29,000 1,440 Climbing Minneapolis Center
02:21PM 45.1983 -102.9164 183° South 380 437 30,500 1,440 Climbing Minneapolis Center
02:22PM 45.0947 -102.9236 183° South 376 433 32,000 1,200 Climbing Minneapolis Center
02:23PM 44.9906 -102.9311 183° South 374 430 33,000 480 Climbing Minneapolis Center
02:24PM 44.8819 -102.9414 184° South 386 444 33,000  Level Minneapolis Center
02:25PM 44.7381 -102.9528 183° South 420 483 33,000  Level Minneapolis Center
02:26PM 44.6108 -102.9628 183° South 444 511 33,000  Level Minneapolis Center
02:27PM 44.4844 -102.9711 183° South 453 521 33,000  Level Minneapolis Center
02:28PM 44.3578 -102.9828 184° South 457 526 33,000  Level Minneapolis Center
02:29PM 44.2283 -102.9911 183° South 462 532 33,000  Level Minneapolis Center
02:30PM 44.1006 -103.0042 184° South 463 533 33,000  Level Minneapolis Center
02:31PM 43.9497 -103.0283 187° South 460 529 33,000  Level Minneapolis Center
02:32PM 43.7939 -103.0569 188° South 455 524 33,000  Level Denver Center
02:33PM 43.6528 -103.0792 187° South 455 524 33,000  Level Denver Center
02:34PM 43.5317 -103.0986 187° South 456 525 33,000  Level Denver Center
02:35PM 43.3908 -103.1208 187° South 456 525 33,000  Level Denver Center
02:36PM 43.2706 -103.1394 186° South 454 522 33,000  Level Denver Center
02:38PM 43.1311 -103.1622 187° South 453 521 33,000  Level Denver Center
02:39PM 43.0117 -103.1803 186° South 450 518 33,000  Level Denver Center
02:40PM 42.8728 -103.2036 187° South 450 518 33,000  Level Denver Center
02:41PM 42.7544 -103.2225 187° South 448 516 33,000  Level Denver Center
02:42PM 42.6161 -103.2447 187° South 447 514 33,000  Level Denver Center
02:43PM 42.4747 -103.2661 186° South 451 519 33,000  Level Denver Center
02:44PM 42.3333 -103.2897 187° South 455 524 33,000  Level Denver Center
02:45PM 42.2136 -103.3078 186° South 453 521 33,000  Level Denver Center
02:46PM 42.0742 -103.3300 187° South 451 519 33,000  Level Denver Center
02:47PM 41.9550 -103.3483 187° South 450 518 33,000  Level Denver Center
02:48PM 41.8161 -103.3708 187° South 448 516 33,000  Level Denver Center
02:49PM 41.6975 -103.3889 186° South 448 516 33,000  Level Denver Center
02:50PM 41.5581 -103.4111 187° South 450 518 33,000 -360 Level Denver Center
02:51PM 41.4397 -103.4286 186° South 446 513 32,300 -540 Descending Denver Center
02:52PM 41.3206 -103.4458 186° South 449 517 32,000 -180 Descending Denver Center
02:53PM 41.1803 -103.4689 187° South 452 520 32,000  Level Denver Center
02:54PM 41.0614 -103.4850 186° South 448 516 32,000 -240 Level Denver Center
02:55PM 40.9344 -103.5072 188° South 449 517 31,600 -1,200 Descending Denver Center
02:56PM 40.8317 -103.5906 212° Southwest 433 498 29,600 -2,520 Descending Denver Center
02:57PM 40.7092 -103.6958 213° Southwest 439 505 26,400 -2,700 Descending Denver Center
02:58PM 40.6083 -103.7825 213° Southwest 433 498 24,100 -2,280 Descending Denver Center
02:59PM 40.5133 -103.8661 214° Southwest 415 478 21,700 -3,120 Descending Denver Center
03:00PM 40.4203 -103.9511 215° Southwest 388 447 17,700 -2,520 Descending Denver Center
03:02PM 40.3631 -104.0406 230° Southwest 321 369 16,500 -1,260 Descending Denver Center
03:03PM 40.3539 -104.1550 264° West 293 337 15,100 -1,440 Descending Denver Center
03:04PM 40.3347 -104.2533 256° West 293 337 13,500 -1,560 Descending Denver Center
03:05PM 40.2953 -104.3531 243° Southwest 288 331 11,900 -1,560 Descending Denver Center
03:06PM 40.2592 -104.4447 243° Southwest 285 328 10,300 -1,320 Descending Denver Center
03:07PM 40.2214 -104.5425 243° Southwest 281 323 9,200 -780 Descending Denver Center
03:08PM 40.1764 -104.6186 232° Southwest 265 305 8,800 -720 Descending Denver Center
03:09PM 40.1092 -104.6733 212° Southwest 266 306 7,800 -1,020 Descending Denver Center